Time;durP1;ratioP1;P1;durP2;ratioP2;P2;SDS_P1;SDS_P2;PMS_P1;PMS_P2;Temp;Humidity;BMP_temperature;BMP_pressure;BME280_temperature;BME280_humidity;BME280_pressure;Samples;Min_cycle;Max_cycle;Signal;HPM_P1;HPM_P2
2023/02/22 00:01:07;;;;;;;62.25;19.80;;;;;;;-143.48;93.58;118439.88;5093871;28;20031;-35
2023/02/22 00:03:33;;;;;;;64.78;19.98;;;;;;;-143.48;94.11;118439.88;5093859;28;20502;-36
2023/02/22 00:06:04;;;;;;;58.33;18.38;;;;;;;-143.48;93.50;118439.88;5093710;28;20462;-34
2023/02/22 00:08:32;;;;;;;60.53;19.02;;;;;;;-143.48;94.08;118439.88;5093847;28;20050;-35
2023/02/22 00:10:59;;;;;;;55.35;19.50;;;;;;;-143.48;94.15;118439.88;5094106;28;20035;-35
2023/02/22 00:13:27;;;;;;;63.83;20.83;;;;;;;-143.48;94.56;118439.88;5094054;28;20028;-36
2023/02/22 00:15:56;;;;;;;60.50;19.40;;;;;;;-143.48;94.34;118439.88;5093675;28;20012;-34
2023/02/22 00:18:22;;;;;;;52.92;19.17;;;;;;;-143.48;94.23;118439.88;5093694;28;20030;-34
2023/02/22 00:20:48;;;;;;;52.60;19.48;;;;;;;-143.48;94.00;118439.88;5093455;28;20107;-34
2023/02/22 00:23:18;;;;;;;52.50;18.98;;;;;;;-143.48;94.26;118439.88;5093713;28;20459;-34
2023/02/22 00:25:45;;;;;;;53.75;19.25;;;;;;;-143.48;94.48;118439.88;5093609;28;20024;-34
2023/02/22 00:28:11;;;;;;;54.72;19.40;;;;;;;-143.48;94.23;118439.88;5093216;28;20085;-35
2023/02/22 00:30:36;;;;;;;53.38;19.73;;;;;;;-143.48;93.46;118439.88;5093387;28;20028;-34
2023/02/22 00:33:02;;;;;;;53.05;18.75;;;;;;;-143.48;93.09;118439.88;5093593;28;20028;-34
2023/02/22 00:35:30;;;;;;;52.65;18.45;;;;;;;-143.48;93.52;118439.88;5093552;28;20012;-34
2023/02/22 00:37:58;;;;;;;51.63;19.50;;;;;;;-143.48;93.80;118439.88;5093502;28;20157;-34
2023/02/22 00:40:29;;;;;;;50.42;19.42;;;;;;;-143.48;93.14;118439.88;5093451;28;20493;-34
2023/02/22 00:42:55;;;;;;;51.00;19.33;;;;;;;-143.48;92.96;118439.88;5093530;28;20435;-34
2023/02/22 00:45:23;;;;;;;56.05;20.05;;;;;;;-143.48;93.67;118439.88;5093094;28;20102;-34
2023/02/22 00:47:49;;;;;;;60.17;20.70;;;;;;;-143.48;94.51;118439.88;5093426;28;20541;-33
2023/02/22 00:50:18;;;;;;;51.63;19.13;;;;;;;-143.48;95.47;118439.88;5093938;28;20098;-34
2023/02/22 00:52:44;;;;;;;52.30;19.55;;;;;;;-143.48;95.34;118439.88;5093438;28;20095;-34
2023/02/22 00:55:16;;;;;;;50.78;19.63;;;;;;;-143.48;95.22;118439.88;5093163;28;20120;-34
2023/02/22 00:57:41;;;;;;;45.25;18.20;;;;;;;-143.48;95.05;118439.88;5093095;28;20355;-34
2023/02/22 01:00:11;;;;;;;50.00;19.25;;;;;;;-143.48;95.34;118439.88;5093570;28;20028;-34
2023/02/22 01:02:41;;;;;;;46.88;18.08;;;;;;;-143.48;95.54;118439.88;5093258;28;20457;-34
2023/02/22 01:05:09;;;;;;;46.15;18.50;;;;;;;-143.48;95.13;118439.88;5095277;28;20024;-34
2023/02/22 01:07:34;;;;;;;46.70;19.33;;;;;;;-143.48;94.65;118439.88;5097442;28;20035;-34
2023/02/22 01:10:01;;;;;;;46.78;18.98;;;;;;;-143.48;94.25;118439.88;5096905;28;20024;-34
2023/02/22 01:12:27;;;;;;;49.90;19.23;;;;;;;-143.48;94.52;118439.88;5096542;28;20020;-34
2023/02/22 01:14:55;;;;;;;46.30;19.05;;;;;;;-143.48;94.99;118439.88;5096514;28;20075;-33
2023/02/22 01:17:22;;;;;;;42.80;18.10;;;;;;;-143.48;94.92;118439.88;5096726;28;20080;-34
2023/02/22 01:19:47;;;;;;;46.47;19.15;;;;;;;-143.48;95.05;118439.88;5096464;28;20047;-36
2023/02/22 01:22:12;;;;;;;43.55;18.27;;;;;;;-143.48;95.25;118439.88;5096286;28;20028;-34
2023/02/22 01:24:37;;;;;;;44.40;19.15;;;;;;;-143.48;95.49;118439.88;5096696;28;20105;-34
2023/02/22 01:27:03;;;;;;;44.97;18.73;;;;;;;-143.48;95.92;118439.88;5096767;28;20020;-35
2023/02/22 01:29:28;;;;;;;44.15;18.65;;;;;;;-143.48;95.69;118439.88;5096827;28;20033;-34
2023/02/22 01:31:55;;;;;;;48.67;20.02;;;;;;;-143.48;95.47;118439.88;5096232;28;20026;-35
2023/02/22 01:34:22;;;;;;;52.13;21.00;;;;;;;-143.48;95.26;118439.88;5096359;28;20111;-34
2023/02/22 01:36:48;;;;;;;45.45;18.73;;;;;;;-143.48;94.82;118439.88;5096151;28;20027;-35
2023/02/22 01:39:16;;;;;;;47.53;19.15;;;;;;;-143.48;94.73;118439.88;5096320;28;20458;-34
2023/02/22 01:41:42;;;;;;;47.22;19.38;;;;;;;-143.48;95.23;118439.88;5096740;28;20031;-35
2023/02/22 01:44:29;;;;;;;51.80;19.50;;;;;;;-143.48;95.89;118439.88;5096318;28;20379;-34
2023/02/22 01:46:56;;;;;;;46.67;19.60;;;;;;;-143.48;95.96;118439.88;5096149;28;20024;-35
2023/02/22 01:49:25;;;;;;;44.40;18.83;;;;;;;-143.48;95.58;118439.88;5095806;28;20400;-34
2023/02/22 01:51:54;;;;;;;49.88;20.05;;;;;;;-143.48;95.88;118439.88;5096137;28;20026;-35
2023/02/22 01:54:29;;;;;;;48.15;18.77;;;;;;;-143.48;96.11;118439.88;5095768;28;20028;-34
2023/02/22 01:56:59;;;;;;;46.60;19.27;;;;;;;-143.48;95.78;118439.88;5096010;28;20370;-34
2023/02/22 01:59:28;;;;;;;47.63;18.75;;;;;;;-143.48;96.11;118439.88;5096008;28;20020;-34
2023/02/22 02:01:53;;;;;;;46.25;19.45;;;;;;;-143.48;95.16;118439.88;5095643;28;20031;-35
2023/02/22 02:04:24;;;;;;;42.33;18.52;;;;;;;-143.48;95.10;118439.88;5095562;28;20028;-35
2023/02/22 02:06:51;;;;;;;43.80;18.20;;;;;;;-143.48;95.31;118439.88;5095377;28;20027;-35
2023/02/22 02:09:25;;;;;;;47.15;19.00;;;;;;;-143.48;94.59;118439.88;5095512;28;20034;-35
2023/02/22 02:11:52;;;;;;;45.03;19.33;;;;;;;-143.48;93.97;118439.88;5094184;28;20046;-35
2023/02/22 02:14:17;;;;;;;48.00;19.00;;;;;;;-143.48;94.15;118439.88;5094163;28;20031;-34
2023/02/22 02:16:46;;;;;;;46.15;19.60;;;;;;;-143.48;94.13;118439.88;5095253;28;20374;-35
2023/02/22 02:19:40;;;;;;;46.75;19.17;;;;;;;-143.48;93.81;118439.88;5095598;28;20375;-34
2023/02/22 02:22:18;;;;;;;46.90;19.42;;;;;;;-143.48;94.09;118439.88;5095572;28;20459;-34
2023/02/22 02:25:09;;;;;;;45.67;18.60;;;;;;;-143.48;93.88;118439.88;5095532;28;20027;-34
2023/02/22 02:28:06;;;;;;;45.10;18.67;;;;;;;-143.48;93.97;118439.88;5095145;28;20028;-35
2023/02/22 02:30:53;;;;;;;43.33;18.92;;;;;;;-143.48;94.19;118439.88;5095368;28;20028;-35
2023/02/22 02:33:56;;;;;;;47.05;19.38;;;;;;;-143.48;93.31;118439.88;5095290;28;20031;-35
2023/02/22 02:36:41;;;;;;;40.20;17.83;;;;;;;-143.48;92.91;118439.88;5023058;28;20041;-34
2023/02/22 02:39:20;;;;;;;49.83;19.55;;;;;;;-143.48;92.31;118439.88;5094863;28;20070;-34
2023/02/22 02:41:50;;;;;;;45.53;18.30;;;;;;;-143.48;92.53;118439.88;5094815;28;20111;-35
2023/02/22 02:44:41;;;;;;;39.60;17.63;;;;;;;-143.48;93.32;118439.88;5094599;28;20052;-33
2023/02/22 02:47:17;;;;;;;42.95;17.95;;;;;;;-143.48;92.92;118439.88;5094707;28;20028;-34
2023/02/22 02:50:07;;;;;;;44.63;18.52;;;;;;;-143.48;93.30;118439.88;5095237;28;20031;-35
2023/02/22 02:52:34;;;;;;;44.58;19.52;;;;;;;-143.48;94.04;118439.88;5094923;28;20048;-34
2023/02/22 02:55:01;;;;;;;44.13;17.83;;;;;;;-143.48;93.83;118439.88;5095433;28;20019;-34
2023/02/22 02:57:26;;;;;;;47.25;19.58;;;;;;;-143.48;94.17;118439.88;5095100;28;20032;-34
2023/02/22 02:59:52;;;;;;;46.53;19.40;;;;;;;-143.48;94.02;118439.88;5094787;28;20454;-34
2023/02/22 03:02:23;;;;;;;45.60;18.40;;;;;;;-143.48;93.99;118439.88;5094709;28;20467;-34
2023/02/22 03:05:09;;;;;;;44.38;18.33;;;;;;;-143.48;93.81;118439.88;5093126;28;20458;-37
2023/02/22 03:07:56;;;;;;;39.60;17.40;;;;;;;-143.48;92.56;118439.88;5094652;28;20378;-33
2023/02/22 03:10:36;;;;;;;44.45;17.45;;;;;;;-143.48;92.91;118439.88;5094304;28;20031;-34
2023/02/22 03:13:13;;;;;;;38.85;17.95;;;;;;;-143.48;93.15;118439.88;5094504;28;20027;-34
2023/02/22 03:16:01;;;;;;;42.42;17.52;;;;;;;-143.48;93.20;118439.88;5094543;28;20355;-35
2023/02/22 03:18:42;;;;;;;40.97;17.60;;;;;;;-143.48;93.92;118439.88;5093779;28;20024;-33
2023/02/22 03:21:32;;;;;;;47.78;18.65;;;;;;;-143.48;93.66;118439.88;5094455;28;20016;-34
2023/02/22 03:24:15;;;;;;;41.92;16.67;;;;;;;-143.48;94.60;118439.88;5095096;28;20459;-34
2023/02/22 03:26:48;;;;;;;38.33;17.25;;;;;;;-143.48;94.33;118439.88;5093976;28;20459;-34
2023/02/22 03:29:17;;;;;;;43.53;17.88;;;;;;;-143.48;94.20;118439.88;5093832;28;20035;-33
2023/02/22 03:31:51;;;;;;;43.03;18.17;;;;;;;-143.48;94.38;118439.88;5094240;28;20106;-34
2023/02/22 03:34:28;;;;;;;45.90;17.77;;;;;;;-143.48;94.88;118439.88;5094462;28;20020;-35
2023/02/22 03:37:02;;;;;;;44.80;17.50;;;;;;;-143.48;94.88;118439.88;5094004;28;20374;-33
2023/02/22 03:39:31;;;;;;;43.83;17.58;;;;;;;-143.48;95.21;118439.88;5094078;28;20020;-34
2023/02/22 03:42:03;;;;;;;42.42;17.13;;;;;;;-143.48;95.52;118439.88;5093806;28;20386;-33
2023/02/22 03:44:32;;;;;;;45.23;18.10;;;;;;;-143.48;95.32;118439.88;5093874;28;20490;-34
2023/02/22 03:47:05;;;;;;;40.53;16.45;;;;;;;-143.48;95.06;118439.88;5093630;28;20071;-34
2023/02/22 03:49:52;;;;;;;40.83;17.00;;;;;;;-143.48;95.14;118439.88;5094019;28;20036;-34
2023/02/22 03:52:18;;;;;;;44.00;17.67;;;;;;;-143.48;95.21;118439.88;5093957;28;20512;-34
2023/02/22 03:54:44;;;;;;;41.47;17.00;;;;;;;-143.48;95.32;118439.88;5093468;28;20063;-34
2023/02/22 03:57:24;;;;;;;40.28;17.50;;;;;;;-143.48;95.12;118439.88;5094096;28;20021;-35
2023/02/22 03:59:49;;;;;;;45.10;17.27;;;;;;;-143.48;95.05;118439.88;5093602;28;20024;-36
2023/02/22 04:02:17;;;;;;;41.72;17.58;;;;;;;-143.48;95.25;118439.88;5093867;28;20035;-34
2023/02/22 04:04:43;;;;;;;40.72;17.33;;;;;;;-143.48;95.65;118439.88;5093886;28;20020;-34
2023/02/22 04:07:09;;;;;;;43.22;17.15;;;;;;;-143.48;95.50;118439.88;5093427;28;20428;-34
2023/02/22 04:09:34;;;;;;;41.92;16.85;;;;;;;-143.48;95.96;118439.88;5094073;28;20024;-34
2023/02/22 04:12:00;;;;;;;40.95;17.35;;;;;;;-143.48;95.19;118439.88;5093727;28;20047;-35
2023/02/22 04:14:25;;;;;;;41.53;17.10;;;;;;;-143.48;94.37;118439.88;5094568;28;20056;-34
2023/02/22 04:16:50;;;;;;;43.50;17.45;;;;;;;-143.48;94.22;118439.88;5093735;28;20057;-34
2023/02/22 04:19:15;;;;;;;41.80;17.08;;;;;;;-143.48;95.11;118439.88;5093675;28;20016;-35
2023/02/22 04:21:41;;;;;;;41.47;17.40;;;;;;;-143.48;95.03;118439.88;5093184;28;20030;-34
2023/02/22 04:24:06;;;;;;;43.00;17.63;;;;;;;-143.48;95.14;118439.88;5094226;28;20032;-33
2023/02/22 04:26:32;;;;;;;45.67;18.02;;;;;;;-143.48;95.49;118439.88;5093233;28;20378;-33
2023/02/22 04:28:57;;;;;;;44.17;16.80;;;;;;;-143.48;95.86;118439.88;5094114;28;20028;-33
2023/02/22 04:31:22;;;;;;;45.30;18.08;;;;;;;-143.48;95.88;118439.88;5093526;28;20084;-34
2023/02/22 04:33:47;;;;;;;46.33;17.45;;;;;;;-143.48;95.17;118439.88;5093231;28;20485;-34
2023/02/22 04:36:14;;;;;;;41.95;18.00;;;;;;;-143.48;96.42;118439.88;5093566;28;20031;-34
2023/02/22 04:38:40;;;;;;;44.33;18.52;;;;;;;-143.48;97.12;118439.88;5094529;28;20478;-34
2023/02/22 04:41:05;;;;;;;40.78;17.40;;;;;;;-143.48;96.19;118439.88;5097634;28;20024;-34
2023/02/22 04:43:31;;;;;;;45.83;18.17;;;;;;;-143.48;95.22;118439.88;5097264;28;20517;-34
2023/02/22 04:45:56;;;;;;;42.00;16.35;;;;;;;-143.48;95.27;118439.88;5097018;28;20130;-36
2023/02/22 04:48:21;;;;;;;40.42;17.38;;;;;;;-143.48;96.05;118439.88;5097309;28;20064;-35
2023/02/22 04:50:47;;;;;;;46.22;17.85;;;;;;;-143.48;96.26;118439.88;5097259;28;20406;-34
2023/02/22 04:53:12;;;;;;;45.83;18.40;;;;;;;-143.48;97.37;118439.88;5096936;28;20466;-35
2023/02/22 04:55:37;;;;;;;50.50;19.52;;;;;;;-143.48;97.74;118439.88;5096888;28;20378;-34
2023/02/22 04:58:03;;;;;;;45.33;18.17;;;;;;;-143.48;97.76;118439.88;5096879;28;20020;-35
2023/02/22 05:00:28;;;;;;;46.42;18.73;;;;;;;-143.48;98.44;118439.88;5097356;28;20084;-34
2023/02/22 05:02:54;;;;;;;48.03;19.10;;;;;;;-143.48;98.59;118439.88;5097006;28;20424;-35
2023/02/22 05:05:20;;;;;;;51.88;19.70;;;;;;;-143.48;98.53;118439.88;5096651;28;20106;-34
2023/02/22 05:07:46;;;;;;;47.05;17.85;;;;;;;-143.48;97.91;118439.88;5096641;28;20027;-34
2023/02/22 05:10:12;;;;;;;46.38;19.10;;;;;;;-143.48;98.29;118439.88;5097209;28;20020;-35
2023/02/22 05:12:38;;;;;;;46.97;19.00;;;;;;;-143.48;98.27;118439.88;5097192;28;20038;-34
2023/02/22 05:15:06;;;;;;;52.90;20.05;;;;;;;-143.48;98.14;118439.88;5096806;28;20378;-34
2023/02/22 05:17:32;;;;;;;51.40;19.92;;;;;;;-143.48;97.62;118439.88;5096491;28;20114;-34
2023/02/22 05:19:57;;;;;;;47.45;19.33;;;;;;;-143.48;98.80;118439.88;5096708;28;20056;-34
2023/02/22 05:22:23;;;;;;;52.80;19.75;;;;;;;-143.48;98.06;118439.88;5096443;28;20031;-34
2023/02/22 05:24:48;;;;;;;53.53;20.13;;;;;;;-143.48;98.07;118439.88;5096648;28;20054;-34
2023/02/22 05:27:14;;;;;;;49.83;18.55;;;;;;;-143.48;98.34;118439.88;5096872;28;20059;-34
2023/02/22 05:29:39;;;;;;;53.05;19.42;;;;;;;-143.48;98.31;118439.88;5096536;28;20355;-34
2023/02/22 05:32:05;;;;;;;50.85;19.20;;;;;;;-143.48;99.16;118439.88;5096528;28;20051;-34
2023/02/22 05:34:31;;;;;;;56.97;21.45;;;;;;;-143.48;99.58;118439.88;5096432;28;20016;-34
2023/02/22 05:36:56;;;;;;;52.47;20.50;;;;;;;-143.48;99.12;118439.88;5096704;28;20023;-34
2023/02/22 05:39:22;;;;;;;55.45;19.70;;;;;;;-143.48;99.66;118439.88;5096326;28;20051;-34
2023/02/22 05:41:47;;;;;;;52.13;19.95;;;;;;;-143.48;99.81;118439.88;5096310;28;20031;-35
2023/02/22 05:44:12;;;;;;;54.08;18.52;;;;;;;-143.48;99.34;118439.88;5095873;28;20130;-35
2023/02/22 05:46:38;;;;;;;55.08;21.05;;;;;;;-143.48;99.14;118439.88;5095820;28;20455;-36
2023/02/22 05:49:03;;;;;;;54.92;20.60;;;;;;;-143.48;99.06;118439.88;5095908;28;20030;-34
2023/02/22 05:51:28;;;;;;;54.38;20.40;;;;;;;-143.48;99.18;118439.88;5095425;28;20036;-33
2023/02/22 05:53:54;;;;;;;55.22;20.83;;;;;;;-143.48;99.50;118439.88;5096063;28;20505;-35
2023/02/22 05:56:24;;;;;;;57.53;19.80;;;;;;;-143.48;99.40;118439.88;5095716;28;20059;-34
2023/02/22 05:58:49;;;;;;;52.00;20.15;;;;;;;-143.48;99.94;118439.88;5096008;28;20031;-34
2023/02/22 06:01:15;;;;;;;56.30;20.60;;;;;;;-143.48;99.78;118439.88;5095711;28;20028;-34
2023/02/22 06:03:40;;;;;;;55.05;20.67;;;;;;;-143.48;100.00;118439.88;5095954;28;20485;-34
2023/02/22 06:06:05;;;;;;;57.67;20.55;;;;;;;-143.48;100.00;118439.88;5095398;28;20035;-34
2023/02/22 06:08:31;;;;;;;52.72;19.40;;;;;;;-143.48;100.00;118439.88;5095659;28;20028;-34
2023/02/22 06:10:56;;;;;;;53.15;20.05;;;;;;;-143.48;100.00;118439.88;5095685;28;20471;-35
2023/02/22 06:13:21;;;;;;;56.90;21.13;;;;;;;-143.48;100.00;118439.88;5095283;28;20024;-35
2023/02/22 06:15:47;;;;;;;55.42;20.10;;;;;;;-143.48;100.00;118439.88;5095400;28;20467;-35
2023/02/22 06:18:12;;;;;;;56.65;20.23;;;;;;;-143.48;100.00;118439.88;5095529;28;20016;-34
2023/02/22 06:20:37;;;;;;;58.85;20.92;;;;;;;-143.48;100.00;118439.88;5095509;28;20401;-34
2023/02/22 06:23:03;;;;;;;63.78;20.40;;;;;;;-143.48;100.00;118439.88;5095501;28;20097;-36
2023/02/22 06:25:30;;;;;;;62.80;21.52;;;;;;;-143.48;100.00;118439.88;5095110;28;20032;-39
2023/02/22 06:27:55;;;;;;;59.30;21.70;;;;;;;-143.48;100.00;118439.88;5095450;28;20024;-34
2023/02/22 06:30:23;;;;;;;54.47;20.58;;;;;;;-143.48;100.00;118439.88;5095550;28;20085;-36
2023/02/22 06:32:49;;;;;;;65.28;22.55;;;;;;;-143.48;100.00;118439.88;5095102;28;20436;-34
2023/02/22 06:35:15;;;;;;;64.20;22.52;;;;;;;-143.48;100.00;118439.88;5095526;28;20053;-34
2023/02/22 06:37:40;;;;;;;61.38;21.33;;;;;;;-143.48;100.00;118439.88;5095166;28;20103;-34
2023/02/22 06:40:06;;;;;;;63.25;21.52;;;;;;;-143.48;100.00;118439.88;5095026;28;20059;-35
2023/02/22 06:42:32;;;;;;;63.78;20.73;;;;;;;-143.48;100.00;118439.88;5095039;28;20030;-35
2023/02/22 06:44:57;;;;;;;61.10;20.63;;;;;;;-143.48;100.00;118439.88;5094835;28;20048;-34
2023/02/22 06:47:22;;;;;;;57.00;19.88;;;;;;;-143.48;100.00;118439.88;5095217;28;20036;-34
2023/02/22 06:49:52;;;;;;;58.83;19.95;;;;;;;-143.48;100.00;118439.88;5094922;28;20351;-34
2023/02/22 06:52:18;;;;;;;60.63;20.45;;;;;;;-143.48;100.00;118439.88;5094783;28;20032;-34
2023/02/22 06:54:43;;;;;;;60.53;18.98;;;;;;;-143.48;100.00;118439.88;5094583;28;20053;-35
2023/02/22 06:57:09;;;;;;;60.35;20.88;;;;;;;-143.48;100.00;118439.88;5094825;28;20343;-35
2023/02/22 06:59:34;;;;;;;59.88;20.33;;;;;;;-143.48;100.00;118439.88;5094786;28;20105;-35
2023/02/22 07:02:00;;;;;;;58.42;19.95;;;;;;;-143.48;100.00;118439.88;5093457;28;20046;-35
2023/02/22 07:04:25;;;;;;;66.45;21.13;;;;;;;-143.48;100.00;118439.88;5094181;28;20102;-34
2023/02/22 07:06:50;;;;;;;60.03;20.50;;;;;;;-143.48;100.00;118439.88;5094055;28;20032;-34
2023/02/22 07:09:17;;;;;;;63.42;20.70;;;;;;;-143.48;100.00;118439.88;5094412;28;20494;-34
2023/02/22 07:11:42;;;;;;;65.78;20.55;;;;;;;-143.48;100.00;118439.88;5094470;28;20020;-34
2023/02/22 07:14:08;;;;;;;59.67;20.88;;;;;;;-143.48;100.00;118439.88;5094371;28;20032;-35
2023/02/22 07:16:34;;;;;;;60.92;20.27;;;;;;;-143.48;100.00;118439.88;5094228;28;20438;-35
2023/02/22 07:18:59;;;;;;;60.80;20.08;;;;;;;-143.48;100.00;118439.88;5094606;28;20060;-35
2023/02/22 07:21:26;;;;;;;65.43;21.35;;;;;;;-143.48;100.00;118439.88;5094435;28;20050;-35
2023/02/22 07:23:53;;;;;;;63.45;20.60;;;;;;;-143.48;100.00;118439.88;5094571;28;20062;-35
2023/02/22 07:26:19;;;;;;;64.63;21.67;;;;;;;-143.48;100.00;118439.88;5093284;28;20028;-35
2023/02/22 07:28:45;;;;;;;69.43;21.98;;;;;;;-143.48;100.00;118439.88;5093926;28;20498;-37
2023/02/22 07:31:10;;;;;;;70.80;22.90;;;;;;;-143.48;100.00;118439.88;5093983;28;20111;-36
2023/02/22 07:33:36;;;;;;;63.63;22.27;;;;;;;-143.48;100.00;118439.88;5092696;28;20088;-36
2023/02/22 07:36:01;;;;;;;73.90;22.83;;;;;;;-143.48;100.00;118439.88;5093522;28;20023;-35
2023/02/22 07:38:27;;;;;;;62.10;20.23;;;;;;;-143.48;100.00;118439.88;5093464;28;20055;-35
2023/02/22 07:40:53;;;;;;;67.68;23.33;;;;;;;-143.48;100.00;118439.88;5093421;28;20023;-35
2023/02/22 07:43:23;;;;;;;70.55;21.95;;;;;;;-143.48;100.00;118439.88;5092643;28;20462;-35
2023/02/22 07:45:51;;;;;;;71.30;22.83;;;;;;;-143.48;100.00;118439.88;5092452;28;20118;-39
2023/02/22 07:48:17;;;;;;;70.18;23.48;;;;;;;-143.48;100.00;118439.88;5093221;28;20081;-35
2023/02/22 07:50:43;;;;;;;63.35;22.20;;;;;;;-143.48;100.00;118439.88;5093062;28;20107;-35
2023/02/22 07:53:20;;;;;;;59.28;20.35;;;;;;;-143.48;100.00;118439.88;5093502;28;20106;-35
2023/02/22 07:55:49;;;;;;;56.65;20.02;;;;;;;-143.48;100.00;118439.88;5093699;28;20016;-34
2023/02/22 07:58:16;;;;;;;69.50;21.65;;;;;;;-143.48;100.00;118439.88;5093602;28;20512;-34
2023/02/22 08:00:47;;;;;;;61.78;21.42;;;;;;;-143.48;100.00;118439.88;5093938;28;20082;-35
2023/02/22 08:03:14;;;;;;;72.70;21.88;;;;;;;-143.48;100.00;118439.88;5093718;28;20374;-35
2023/02/22 08:05:47;;;;;;;67.30;22.10;;;;;;;-143.48;100.00;118439.88;5093210;28;20040;-34
2023/02/22 08:08:14;;;;;;;66.18;21.80;;;;;;;-143.48;100.00;118439.88;5092857;28;20020;-35
2023/02/22 08:10:41;;;;;;;63.78;22.08;;;;;;;-143.48;100.00;118439.88;5092903;28;20047;-34
2023/02/22 08:13:07;;;;;;;64.15;22.75;;;;;;;-143.48;100.00;118439.88;5091993;28;20386;-36
2023/02/22 08:15:38;;;;;;;61.13;20.63;;;;;;;-143.48;100.00;118439.88;5097823;28;20107;-36
2023/02/22 08:18:10;;;;;;;72.68;22.75;;;;;;;-143.48;100.00;118439.88;5097082;28;20024;-34
2023/02/22 08:20:36;;;;;;;60.67;20.38;;;;;;;-143.48;100.00;118439.88;5097979;28;20028;-34
2023/02/22 08:23:03;;;;;;;67.70;22.17;;;;;;;-143.48;100.00;118439.88;5097298;28;20035;-34
2023/02/22 08:25:29;;;;;;;66.80;22.13;;;;;;;-143.48;100.00;118439.88;5097238;28;20082;-35
2023/02/22 08:28:00;;;;;;;67.20;22.30;;;;;;;-143.48;100.00;118439.88;5096703;28;20024;-34
2023/02/22 08:30:27;;;;;;;64.60;21.33;;;;;;;-143.48;100.00;118439.88;5096938;28;20020;-35
2023/02/22 08:32:52;;;;;;;58.33;21.67;;;;;;;-143.48;100.00;118439.88;5095854;28;20518;-35
2023/02/22 08:35:19;;;;;;;57.60;20.08;;;;;;;-143.48;100.00;118439.88;5097320;28;20107;-35
2023/02/22 08:37:48;;;;;;;59.72;21.75;;;;;;;-143.48;100.00;118439.88;5097831;28;20055;-34
2023/02/22 08:40:17;;;;;;;58.17;20.42;;;;;;;-143.48;100.00;118439.88;5096353;28;20055;-35
2023/02/22 08:42:43;;;;;;;55.45;20.00;;;;;;;-143.48;100.00;118439.88;5096308;28;20051;-35
2023/02/22 08:45:09;;;;;;;62.55;20.98;;;;;;;-143.48;100.00;118439.88;5078990;28;20117;-35
2023/02/22 08:47:35;;;;;;;65.20;22.45;;;;;;;-143.48;100.00;118439.88;5096946;28;20020;-35
2023/02/22 08:50:00;;;;;;;59.15;21.08;;;;;;;-143.48;100.00;118439.88;5097496;28;20038;-35
2023/02/22 08:52:26;;;;;;;58.08;22.10;;;;;;;-143.48;99.64;118439.88;5095655;28;20089;-36
2023/02/22 08:54:51;;;;;;;59.60;20.17;;;;;;;-143.48;99.50;118439.88;5096601;28;20028;-35
2023/02/22 08:57:16;;;;;;;57.95;20.95;;;;;;;-143.48;98.89;118439.88;5094453;28;20024;-35
2023/02/22 08:59:42;;;;;;;52.28;20.63;;;;;;;-143.48;98.13;118439.88;5094822;28;20032;-35
2023/02/22 09:02:17;;;;;;;50.55;20.40;;;;;;;-143.48;97.48;118439.88;5095447;28;20050;-35
2023/02/22 09:04:43;;;;;;;49.22;19.92;;;;;;;-143.48;96.70;118439.88;5094432;28;20032;-35
2023/02/22 09:07:09;;;;;;;46.03;18.17;;;;;;;-143.48;96.13;118439.88;5094526;28;20026;-35
2023/02/22 09:09:34;;;;;;;40.65;17.42;;;;;;;-143.48;95.36;118439.88;5094589;28;20032;-36
2023/02/22 09:12:00;;;;;;;45.15;19.27;;;;;;;-143.48;95.21;118439.88;5094692;28;20466;-35
2023/02/22 09:14:25;;;;;;;42.58;17.88;;;;;;;-143.48;95.47;118439.88;5094388;28;20036;-35
2023/02/22 09:16:51;;;;;;;46.80;19.70;;;;;;;-143.48;96.08;118439.88;5094654;28;20016;-35
2023/02/22 09:19:16;;;;;;;44.95;18.77;;;;;;;-143.48;95.02;118439.88;5093859;28;20035;-35
2023/02/22 09:21:41;;;;;;;40.28;18.20;;;;;;;-143.48;93.95;118439.88;5096368;28;20027;-36
2023/02/22 09:24:07;;;;;;;41.70;16.83;;;;;;;-143.48;93.30;118439.88;5096665;28;20110;-35
2023/02/22 09:26:38;;;;;;;44.75;17.95;;;;;;;-143.48;93.82;118439.88;5093733;28;20486;-35
2023/02/22 09:29:08;;;;;;;44.28;18.08;;;;;;;-143.48;93.11;118439.88;5096468;28;20024;-35
2023/02/22 09:31:40;;;;;;;42.85;17.90;;;;;;;-143.48;92.30;118439.88;5096462;28;20020;-34
2023/02/22 09:34:12;;;;;;;35.85;17.30;;;;;;;-143.48;91.66;118439.88;5096455;28;20028;-34
2023/02/22 09:36:45;;;;;;;36.65;17.13;;;;;;;-143.48;91.70;118439.88;5096607;28;20468;-34
2023/02/22 09:39:12;;;;;;;37.97;17.52;;;;;;;-143.48;90.70;118439.88;5094856;28;20060;-34
2023/02/22 09:42:03;;;;;;;36.78;16.88;;;;;;;-143.48;89.87;118439.88;5096133;28;20020;-35
2023/02/22 09:44:35;;;;;;;35.33;16.90;;;;;;;-143.48;89.38;118439.88;5083449;28;20061;-35
2023/02/22 09:47:03;;;;;;;37.40;17.73;;;;;;;-143.48;89.96;118439.88;5095332;28;20036;-35
2023/02/22 09:49:46;;;;;;;37.38;17.50;;;;;;;-143.48;89.31;118439.88;5095520;28;20028;-34
2023/02/22 09:52:22;;;;;;;39.00;16.83;;;;;;;-143.48;88.29;118439.88;5095723;28;20035;-35
2023/02/22 09:55:14;;;;;;;37.80;17.30;;;;;;;-143.48;87.53;118439.88;5096236;28;20028;-35
2023/02/22 09:57:42;;;;;;;33.40;16.45;;;;;;;-143.48;87.77;118439.88;5095940;28;20024;-34
2023/02/22 10:00:14;;;;;;;35.58;16.95;;;;;;;-143.48;86.79;118439.88;5095025;28;20031;-35
2023/02/22 10:02:45;;;;;;;35.92;16.20;;;;;;;-143.48;87.10;118439.88;5093928;28;20019;-35
2023/02/22 10:05:27;;;;;;;42.40;16.30;;;;;;;-143.48;86.79;118439.88;5095617;28;20056;-35
2023/02/22 10:07:59;;;;;;;35.50;16.55;;;;;;;-143.48;85.82;118439.88;5095382;28;20020;-35
2023/02/22 10:10:32;;;;;;;35.85;16.83;;;;;;;-143.48;84.03;118439.88;5095646;28;20028;-35
2023/02/22 10:13:09;;;;;;;36.03;17.95;;;;;;;-143.48;81.33;118439.88;5095238;28;20020;-35
2023/02/22 10:15:42;;;;;;;33.17;16.77;;;;;;;-143.48;81.29;118439.88;5095620;28;20040;-34
2023/02/22 10:18:31;;;;;;;33.95;17.50;;;;;;;-143.48;81.66;118439.88;5092857;28;20549;-35
2023/02/22 10:21:17;;;;;;;35.85;17.13;;;;;;;-143.48;83.77;118439.88;5093080;28;20024;-35
2023/02/22 10:23:50;;;;;;;33.58;16.35;;;;;;;-143.48;83.17;118439.88;5092926;28;20470;-35
2023/02/22 10:26:21;;;;;;;32.03;16.70;;;;;;;-143.48;82.86;118439.88;5093223;28;20019;-35
2023/02/22 10:29:00;;;;;;;31.02;16.17;;;;;;;-143.48;82.54;118439.88;5093041;28;20047;-36
2023/02/22 10:31:29;;;;;;;31.27;15.77;;;;;;;-143.48;81.21;118439.88;5091992;28;20028;-35
2023/02/22 10:34:09;;;;;;;34.78;15.77;;;;;;;-143.48;79.72;118439.88;5095424;28;20030;-35
2023/02/22 10:36:37;;;;;;;31.52;16.38;;;;;;;-143.48;79.51;118439.88;5093642;28;20073;-35
2023/02/22 10:39:32;;;;;;;29.88;16.00;;;;;;;-143.48;79.31;118439.88;5095090;28;20051;-35
2023/02/22 10:42:04;;;;;;;29.80;15.90;;;;;;;-143.48;79.39;118439.88;5094998;28;20382;-35
2023/02/22 10:44:32;;;;;;;32.40;16.13;;;;;;;-143.48;78.72;118439.88;5094766;28;20072;-35
2023/02/22 10:47:00;;;;;;;29.35;14.73;;;;;;;-143.48;80.03;118439.88;5094865;28;20024;-35
2023/02/22 10:49:33;;;;;;;29.77;14.93;;;;;;;-143.48;78.14;118439.88;5094664;28;20035;-34
2023/02/22 10:52:01;;;;;;;31.05;14.98;;;;;;;-143.48;79.19;118439.88;5094604;28;20020;-34
2023/02/22 10:54:35;;;;;;;28.75;15.02;;;;;;;-143.48;79.39;118439.88;5094616;28;20034;-34
2023/02/22 10:57:02;;;;;;;31.77;15.43;;;;;;;-143.48;79.44;118439.88;5093232;28;20016;-34
2023/02/22 10:59:40;;;;;;;28.33;14.35;;;;;;;-143.48;80.52;118439.88;5094463;28;20026;-35
2023/02/22 11:02:23;;;;;;;31.73;15.05;;;;;;;-143.48;80.29;118439.88;5094733;28;20462;-35